Time;durP1;ratioP1;P1;durP2;ratioP2;P2;SDS_P1;SDS_P2;PMS_P1;PMS_P2;Temp;Humidity;BMP_temperature;BMP_pressure;BME280_temperature;BME280_humidity;BME280_pressure;Samples;Min_cycle;Max_cycle;Signal;HPM_P1;HPM_P2
2023/10/21 00:00:09;;;;;;;6.13;1.90;;;13.50;99.90;;;13.81;83.02;97444.56;5080927;28;20045;-82
2023/10/21 00:02:41;;;;;;;3.50;1.55;;;13.50;99.90;;;13.80;82.96;97439.50;5081561;28;20044;-82
2023/10/21 00:05:09;;;;;;;5.78;1.80;;;13.50;99.90;;;13.81;83.02;97441.88;5082788;28;20040;-82
2023/10/21 00:07:37;;;;;;;9.43;1.67;;;13.50;99.90;;;13.84;83.07;97441.25;5076584;28;20037;-82
2023/10/21 00:10:07;;;;;;;4.68;1.80;;;13.50;99.90;;;13.81;82.48;97441.88;5078385;28;20083;-82
2023/10/21 00:12:35;;;;;;;4.63;1.70;;;13.50;99.90;;;13.81;82.60;97443.75;5062735;28;20084;-82
2023/10/21 00:15:07;;;;;;;4.03;1.65;;;13.50;99.90;;;13.79;82.45;97444.06;5060700;28;20044;-82
2023/10/21 00:17:35;;;;;;;4.85;1.65;;;13.50;99.90;;;13.79;82.49;97456.66;5061142;28;20049;-82
2023/10/21 00:20:06;;;;;;;4.60;1.70;;;13.50;99.90;;;13.79;82.37;97452.09;5082101;28;20037;-82
2023/10/21 00:22:35;;;;;;;3.33;1.63;;;13.50;99.90;;;13.76;82.57;97447.38;5044288;28;20049;-82
2023/10/21 00:25:03;;;;;;;5.13;1.80;;;13.50;99.90;;;13.77;82.46;97464.22;5079530;28;20045;-82
2023/10/21 00:27:31;;;;;;;3.33;1.70;;;13.40;99.90;;;13.75;82.37;97455.69;5081727;28;20055;-82
2023/10/21 00:29:58;;;;;;;3.95;1.60;;;13.40;99.90;;;13.75;82.44;97464.53;5060112;28;20052;-82
2023/10/21 00:32:28;;;;;;;3.20;1.58;;;13.40;99.90;;;13.75;82.51;97472.56;5060284;28;20554;-82
2023/10/21 00:34:56;;;;;;;3.80;1.63;;;13.50;99.90;;;13.76;82.24;97474.16;5043880;28;20049;-82
2023/10/21 00:37:23;;;;;;;5.30;1.42;;;13.40;99.90;;;13.73;82.36;97477.44;5061454;28;20129;-82
2023/10/21 00:39:51;;;;;;;4.80;1.45;;;13.40;99.90;;;13.72;82.80;97478.53;5057665;28;20453;-82
2023/10/21 00:42:18;;;;;;;3.25;1.63;;;13.40;99.90;;;13.72;82.86;97483.91;5079616;28;20086;-82
2023/10/21 00:44:45;;;;;;;6.75;1.95;;;13.40;99.90;;;13.74;82.89;97480.91;5056109;28;20099;-82
2023/10/21 00:47:13;;;;;;;5.03;1.65;;;13.40;99.90;;;13.73;83.36;97469.41;5058712;28;20037;-82
2023/10/21 00:49:43;;;;;;;8.77;1.80;;;13.50;99.90;;;13.74;83.31;97473.66;5036113;28;20107;-82
2023/10/21 00:52:13;;;;;;;3.15;1.45;;;13.40;99.90;;;13.73;83.39;97472.06;5072297;28;20402;-82
2023/10/21 00:54:41;;;;;;;5.63;1.30;;;13.40;99.90;;;13.73;83.34;97476.66;5062049;28;20080;-82
2023/10/21 00:57:09;;;;;;;4.45;1.48;;;13.40;99.90;;;13.73;83.67;97473.97;5070014;28;20032;-82
2023/10/21 00:59:40;;;;;;;6.78;2.05;;;13.40;99.90;;;13.73;83.75;97474.75;5083925;28;20048;-82
2023/10/21 01:02:07;;;;;;;3.47;1.55;;;13.40;99.90;;;13.75;84.13;97483.25;5084024;28;20048;-82
2023/10/21 01:04:35;;;;;;;4.88;1.67;;;13.50;99.90;;;13.76;84.16;97479.50;5085504;28;20098;-82
2023/10/21 01:07:04;;;;;;;4.25;1.70;;;13.50;99.90;;;13.80;84.06;97485.03;5084387;28;20048;-82
2023/10/21 01:09:32;;;;;;;5.63;1.80;;;13.50;99.90;;;13.81;84.09;97492.78;5077990;28;20048;-84
2023/10/21 01:12:01;;;;;;;3.65;1.73;;;13.60;99.90;;;13.81;84.36;97494.66;5043769;28;20047;-82
2023/10/21 01:14:29;;;;;;;4.78;1.70;;;13.60;99.90;;;13.82;84.33;97499.72;5045658;28;20053;-83
2023/10/21 01:16:58;;;;;;;4.20;1.80;;;13.60;99.90;;;13.83;84.49;97489.78;5074525;28;20071;-83
2023/10/21 01:19:26;;;;;;;3.33;1.40;;;13.60;99.90;;;13.83;84.52;97498.63;5081074;28;20040;-82
2023/10/21 01:21:53;;;;;;;6.13;1.52;;;13.60;99.90;;;13.84;84.53;97494.84;5063636;28;20048;-82
2023/10/21 01:24:22;;;;;;;4.28;1.50;;;13.60;99.90;;;13.84;84.63;97500.19;5082510;28;20041;-82
2023/10/21 01:26:51;;;;;;;4.95;1.50;;;13.60;99.90;;;13.84;84.89;97500.19;5077154;28;20530;-82
2023/10/21 01:29:19;;;;;;;3.17;1.50;;;13.60;99.90;;;13.85;84.91;97498.31;5064882;28;20452;-82
2023/10/21 01:31:46;;;;;;;8.98;1.60;;;13.60;99.90;;;13.85;85.20;97507.13;5064305;28;20041;-82
2023/10/21 01:34:15;;;;;;;6.20;1.60;;;13.60;99.90;;;13.85;85.24;97504.44;5064757;28;20064;-82
2023/10/21 01:36:42;;;;;;;4.93;1.60;;;13.60;99.90;;;13.86;85.36;97507.94;5095835;28;20103;-82
2023/10/21 01:39:11;;;;;;;2.95;1.30;;;13.70;99.90;;;13.88;85.71;97506.53;5063716;28;20075;-82
2023/10/21 01:41:40;;;;;;;5.40;1.40;;;13.70;99.90;;;13.89;85.73;97510.00;5081757;28;20120;-82
2023/10/21 01:44:08;;;;;;;4.15;1.30;;;13.70;99.90;;;13.90;85.76;97514.25;5081541;28;20063;-82
2023/10/21 01:46:37;;;;;;;3.42;1.33;;;13.70;99.90;;;13.91;85.88;97513.97;5049918;28;20055;-82
2023/10/21 01:49:05;;;;;;;3.13;1.33;;;13.70;99.90;;;13.92;86.06;97522.78;5064121;28;20041;-82
2023/10/21 01:51:32;;;;;;;2.72;1.20;;;13.70;99.90;;;13.94;86.08;97519.78;5077817;28;20215;-82
2023/10/21 01:54:00;;;;;;;3.00;1.25;;;13.70;99.90;;;13.91;86.76;97522.00;5084405;28;20511;-82
2023/10/21 01:56:28;;;;;;;3.95;1.17;;;13.70;99.90;;;13.91;87.26;97530.03;5083140;28;20048;-82
2023/10/21 01:58:59;;;;;;;3.42;1.10;;;13.80;99.90;;;13.93;87.22;97527.03;5085462;28;20044;-83
2023/10/21 02:01:27;;;;;;;3.58;1.10;;;13.80;99.90;;;13.95;87.25;97540.13;5072739;28;20098;-82
2023/10/21 02:03:56;;;;;;;5.28;0.95;;;13.80;99.90;;;13.94;88.06;97543.91;5064402;28;20049;-82
2023/10/21 02:06:23;;;;;;;3.80;1.08;;;13.80;99.90;;;13.94;88.14;97542.03;5065080;28;20049;-82
2023/10/21 02:08:51;;;;;;;5.72;1.00;;;13.80;99.90;;;13.95;88.07;97551.63;5055780;28;20500;-82
2023/10/21 02:11:23;;;;;;;4.45;1.20;;;13.80;99.90;;;13.97;88.14;97551.34;5046366;28;20427;-82
2023/10/21 02:13:51;;;;;;;3.88;1.10;;;13.80;99.90;;;13.97;88.34;97554.03;5064217;28;20049;-82
2023/10/21 02:16:21;;;;;;;3.47;0.90;;;13.80;99.90;;;13.99;88.36;97557.19;5082355;28;20041;-82
2023/10/21 02:18:49;;;;;;;3.42;1.00;;;13.80;99.90;;;13.98;89.06;97560.97;5062827;28;20053;-82
2023/10/21 02:21:18;;;;;;;2.42;1.00;;;13.80;99.90;;;14.00;89.43;97570.25;5082641;28;20044;-83
2023/10/21 02:23:45;;;;;;;3.65;1.20;;;13.80;99.90;;;14.01;89.21;97571.88;5030817;28;20463;-82
2023/10/21 02:26:13;;;;;;;5.07;1.20;;;13.80;99.90;;;14.01;88.96;97569.19;5063504;28;20052;-83
2023/10/21 02:28:40;;;;;;;5.05;1.70;;;13.80;99.90;;;14.04;88.66;97575.81;5063987;28;20136;-83
2023/10/21 02:31:09;;;;;;;4.90;1.48;;;13.90;99.90;;;14.03;89.18;97577.72;5064963;28;20045;-82
2023/10/21 02:33:38;;;;;;;5.30;1.20;;;13.90;99.90;;;14.03;89.36;97584.97;5064900;28;20049;-82
2023/10/21 02:36:05;;;;;;;4.05;1.20;;;13.80;99.90;;;14.03;89.40;97584.97;5065193;28;20074;-82
2023/10/21 02:38:36;;;;;;;;;;;13.80;99.90;;;14.00;89.78;97586.34;5098100;28;20041;-83
2023/10/21 02:41:06;;;;;;;9.63;1.40;;;13.80;99.90;;;14.00;89.95;97590.91;5083163;28;19974;-83
2023/10/21 02:43:34;;;;;;;4.88;1.38;;;13.80;99.90;;;14.01;90.23;97592.53;5083326;28;20059;-83
2023/10/21 02:46:09;;;;;;;2.55;1.23;;;13.80;99.90;;;13.98;90.54;97604.63;5100672;28;20098;-83
2023/10/21 02:48:38;;;;;;;5.72;1.38;;;13.80;99.90;;;13.99;90.46;97616.13;5084363;28;20075;-83
2023/10/21 02:51:13;;;;;;;5.25;1.30;;;13.80;99.90;;;13.98;90.70;97618.03;5082992;28;20052;-82
2023/10/21 02:53:41;;;;;;;6.10;1.40;;;13.80;99.90;;;13.96;91.19;97625.59;5064852;28;20382;-82
2023/10/21 02:56:10;;;;;;;4.85;1.30;;;13.80;99.90;;;13.93;91.84;97623.50;5062458;28;20053;-83
2023/10/21 02:58:41;;;;;;;4.80;1.58;;;13.80;99.90;;;13.94;92.09;97629.66;5081727;28;20472;-83
2023/10/21 03:01:16;;;;;;;5.07;1.70;;;13.80;99.90;;;13.94;92.55;97629.66;5081890;28;20549;-82
2023/10/21 03:03:47;;;;;;;4.07;1.33;;;13.80;99.90;;;13.95;92.89;97625.88;5097684;28;20048;-82
2023/10/21 03:06:16;;;;;;;3.50;1.45;;;13.80;99.90;;;13.95;92.83;97633.91;5082259;28;20048;-82
2023/10/21 03:08:45;;;;;;;4.78;1.50;;;13.80;99.90;;;13.94;93.03;97643.03;5081568;28;20064;-82
2023/10/21 03:11:14;;;;;;;6.57;1.77;;;13.80;99.90;;;13.94;92.93;97643.03;5082035;28;20112;-82
2023/10/21 03:13:42;;;;;;;4.88;1.48;;;13.80;99.90;;;13.98;92.54;97650.19;5083550;28;20064;-83
2023/10/21 03:16:13;;;;;;;6.10;1.77;;;13.80;99.90;;;13.99;92.73;97656.31;5051197;28;20076;-83
2023/10/21 03:18:45;;;;;;;4.78;1.60;;;13.90;99.90;;;13.99;92.54;97659.00;5042573;28;20072;-83
2023/10/21 03:21:15;;;;;;;5.97;2.05;;;13.90;99.90;;;14.00;92.31;97666.72;5082824;28;20048;-82
2023/10/21 03:23:42;;;;;;;6.93;1.85;;;13.90;99.90;;;14.00;92.43;97671.31;5083954;28;20491;-82
2023/10/21 03:26:11;;;;;;;6.40;2.00;;;13.90;99.90;;;13.98;92.70;97678.88;5081920;28;20545;-82
2023/10/21 03:28:40;;;;;;;5.10;2.40;;;13.90;99.90;;;13.98;92.87;97689.59;5082491;28;20045;-82
2023/10/21 03:31:08;;;;;;;9.73;2.08;;;13.90;99.90;;;13.99;93.09;97701.88;5064473;28;20048;-83
2023/10/21 03:33:36;;;;;;;7.45;2.55;;;13.80;99.90;;;13.93;93.38;97695.84;5065646;28;20040;-82
2023/10/21 03:36:07;;;;;;;5.05;2.50;;;13.80;99.90;;;13.85;94.08;97702.69;5078350;28;20056;-82
2023/10/21 03:38:34;;;;;;;6.28;2.55;;;13.80;99.90;;;13.86;94.65;97703.50;5064069;28;20048;-82
2023/10/21 03:41:05;;;;;;;6.85;2.45;;;13.80;99.90;;;13.89;94.46;97706.34;5076156;28;20066;-82
2023/10/21 03:43:34;;;;;;;4.18;2.60;;;13.80;99.90;;;13.93;94.15;97716.50;5054396;28;20508;-82
2023/10/21 03:46:07;;;;;;;6.13;2.47;;;13.80;99.90;;;13.93;94.17;97724.53;5063435;28;20045;-82
2023/10/21 03:48:36;;;;;;;4.70;2.10;;;13.80;99.90;;;13.95;93.86;97723.13;5067965;28;20036;-82
2023/10/21 03:51:07;;;;;;;4.95;2.33;;;13.80;99.90;;;13.95;94.03;97722.31;5082500;28;20132;-82
2023/10/21 03:53:35;;;;;;;3.42;2.15;;;13.80;99.90;;;13.98;93.59;97733.25;5083544;28;20040;-82
2023/10/21 03:56:03;;;;;;;4.53;2.13;;;13.90;99.90;;;13.98;93.26;97738.59;5083181;28;20075;-82
2023/10/21 03:58:31;;;;;;;4.43;2.25;;;13.90;99.90;;;14.00;93.30;97741.75;5082675;28;20040;-82
2023/10/21 04:00:59;;;;;;;5.03;2.10;;;13.90;99.90;;;14.02;93.17;97747.63;5083920;28;20045;-83
2023/10/21 04:03:28;;;;;;;6.32;2.33;;;13.90;99.90;;;14.02;93.22;97749.53;5081839;28;20095;-82
2023/10/21 04:05:56;;;;;;;5.47;2.30;;;13.90;99.90;;;14.02;93.34;97754.88;5082225;28;20044;-82
2023/10/21 04:08:26;;;;;;;4.28;2.33;;;13.90;99.90;;;14.02;93.26;97757.56;5096700;28;20044;-83
2023/10/21 04:10:54;;;;;;;6.07;2.42;;;13.90;99.90;;;14.01;93.35;97758.66;5082384;28;20519;-83
2023/10/21 04:13:23;;;;;;;5.80;2.33;;;13.90;99.90;;;13.98;93.74;97765.41;5077569;28;20403;-84
2023/10/21 04:15:50;;;;;;;4.40;2.15;;;13.90;99.90;;;13.99;93.80;97771.56;5074292;28;20094;-85
2023/10/21 04:18:18;;;;;;;7.68;2.40;;;13.90;99.90;;;14.01;93.76;97774.75;5055726;28;20041;-85
2023/10/21 04:20:45;;;;;;;4.70;2.38;;;13.90;99.90;;;14.04;93.57;97788.31;5070901;28;20135;-86
2023/10/21 04:23:13;;;;;;;4.43;2.35;;;13.90;99.90;;;14.01;93.77;97790.81;5038079;28;20091;-87
2023/10/21 04:25:43;;;;;;;6.28;2.60;;;13.90;99.90;;;13.99;94.01;97790.31;5055917;28;20106;-86
2023/10/21 04:28:10;;;;;;;4.90;2.67;;;13.90;99.90;;;14.00;94.31;97789.22;5055378;28;20041;-85
2023/10/21 04:30:38;;;;;;;6.07;2.70;;;13.90;99.90;;;14.03;94.24;97796.66;5072182;28;20059;-85
2023/10/21 04:33:06;;;;;;;3.80;2.63;;;13.90;99.90;;;14.01;94.09;97799.66;5067629;28;20063;-85
2023/10/21 04:35:33;;;;;;;4.35;2.80;;;13.90;99.90;;;14.00;94.30;97799.94;5057265;28;20060;-86
2023/10/21 04:38:00;;;;;;;6.43;2.65;;;13.90;99.90;;;14.03;94.19;97802.03;5072414;28;20076;-86
2023/10/21 04:40:28;;;;;;;6.10;3.10;;;13.90;99.90;;;14.00;94.12;97816.00;5060313;28;20570;-85
2023/10/21 04:42:57;;;;;;;4.90;3.25;;;13.90;99.90;;;13.99;94.55;97814.44;5075354;28;20090;-86
2023/10/21 04:45:25;;;;;;;8.60;3.30;;;13.90;99.90;;;14.01;94.43;97814.94;5058864;28;20094;-86
2023/10/21 04:47:52;;;;;;;7.22;3.70;;;13.90;99.90;;;14.03;94.07;97821.56;5075402;28;20119;-85
2023/10/21 04:50:20;;;;;;;5.53;3.45;;;13.90;99.90;;;14.05;94.43;97829.31;5075724;28;20048;-85
2023/10/21 04:52:48;;;;;;;8.75;3.45;;;13.90;99.90;;;14.04;94.21;97827.72;5077257;28;20060;-86
2023/10/21 04:55:15;;;;;;;5.75;3.45;;;13.90;99.90;;;14.05;94.38;97837.34;5074186;28;20512;-87
2023/10/21 04:57:42;;;;;;;8.43;3.90;;;13.90;99.90;;;14.04;94.20;97844.59;5060046;28;20094;-84
2023/10/21 05:00:14;;;;;;;6.93;3.50;;;13.90;99.90;;;14.07;94.43;97840.53;5038461;28;20412;-87
2023/10/21 05:02:42;;;;;;;6.28;3.65;;;13.90;99.90;;;14.08;94.45;97847.47;5055315;28;20049;-87
2023/10/21 05:05:12;;;;;;;5.95;3.90;;;13.90;99.90;;;14.07;94.39;97854.72;5071632;28;20128;-87
2023/10/21 05:07:40;;;;;;;8.45;3.42;;;14.00;99.90;;;14.08;94.19;97860.88;5057123;28;20091;-87
2023/10/21 05:10:09;;;;;;;6.80;3.47;;;14.00;99.90;;;14.10;94.02;97870.22;5056487;28;20064;-83
2023/10/21 05:12:37;;;;;;;6.18;3.70;;;14.00;99.90;;;14.10;94.12;97864.88;5075910;28;20070;-82
2023/10/21 05:15:06;;;;;;;7.57;3.47;;;14.00;99.90;;;14.05;94.55;97867.63;5068354;28;20487;-82
2023/10/21 05:17:36;;;;;;;9.63;3.80;;;14.00;99.90;;;14.08;94.80;97879.63;5066611;28;20474;-82
2023/10/21 05:20:03;;;;;;;7.95;3.22;;;14.00;99.90;;;14.10;94.36;97878.25;5064699;28;20041;-82
2023/10/21 05:22:32;;;;;;;7.22;3.80;;;14.00;99.90;;;14.12;94.12;97886.78;5078922;28;20044;-83
2023/10/21 05:24:59;;;;;;;7.72;4.07;;;14.00;99.90;;;14.09;94.35;97887.38;5069071;28;20091;-83
2023/10/21 05:27:26;;;;;;;7.18;4.22;;;14.00;99.90;;;14.10;94.52;97890.84;5073813;28;20040;-82
2023/10/21 05:29:54;;;;;;;5.90;3.95;;;14.00;99.90;;;14.12;94.14;97900.19;5086405;28;20067;-82
2023/10/21 05:32:21;;;;;;;6.82;3.75;;;14.00;99.90;;;14.14;93.92;97897.19;5084563;28;20048;-82
2023/10/21 05:34:51;;;;;;;10.07;4.18;;;14.00;99.90;;;14.14;93.92;97913.28;5080306;28;20052;-82
2023/10/21 05:37:18;;;;;;;7.20;3.97;;;14.00;99.90;;;14.13;93.42;97919.75;5064604;28;20045;-82
2023/10/21 05:39:46;;;;;;;7.45;4.07;;;14.00;99.90;;;14.12;93.32;97920.84;5066413;28;20209;-82
2023/10/21 05:42:13;;;;;;;7.32;3.63;;;14.00;99.90;;;14.10;93.05;97917.66;5068193;28;20440;-82
2023/10/21 05:44:44;;;;;;;7.80;3.75;;;13.90;99.90;;;14.07;93.27;97920.94;5016857;28;20045;-81
2023/10/21 05:47:13;;;;;;;5.85;3.55;;;13.90;99.90;;;14.09;92.76;97932.94;5086773;28;20557;-81
2023/10/21 05:49:40;;;;;;;7.97;3.45;;;13.90;99.90;;;14.10;92.08;97933.72;5086925;28;20480;-81
2023/10/21 05:52:09;;;;;;;7.22;3.60;;;13.90;99.90;;;14.11;92.08;97946.06;5086661;28;20063;-81
2023/10/21 05:54:37;;;;;;;7.40;3.92;;;13.90;99.90;;;14.11;91.70;97946.06;5102088;28;20044;-83
2023/10/21 05:57:05;;;;;;;7.65;4.10;;;13.90;99.90;;;14.11;91.20;97948.75;5079837;28;20045;-86
2023/10/21 05:59:33;;;;;;;7.20;3.45;;;13.90;99.90;;;14.10;90.80;97947.13;5074652;28;20040;-85
2023/10/21 06:02:01;;;;;;;8.02;3.58;;;13.90;99.90;;;14.10;90.77;97955.16;5073997;28;20048;-87
2023/10/21 06:04:28;;;;;;;6.60;3.40;;;13.90;99.90;;;14.10;90.38;97971.25;5075573;28;20040;-85
2023/10/21 06:06:56;;;;;;;5.90;3.60;;;13.90;99.90;;;14.08;89.97;97973.44;5023951;28;20053;-84
2023/10/21 06:09:27;;;;;;;7.55;3.78;;;13.90;99.90;;;14.07;89.87;97978.00;5074978;28;20090;-84
2023/10/21 06:11:55;;;;;;;8.73;4.10;;;13.80;99.90;;;14.04;89.55;97975.91;5073863;28;20036;-84
2023/10/21 06:14:22;;;;;;;6.95;3.45;;;13.80;99.90;;;14.03;89.25;97993.09;5056922;28;20117;-84
2023/10/21 06:16:50;;;;;;;8.45;3.80;;;13.80;99.90;;;14.01;89.44;97992.59;5060841;28;20466;-85
2023/10/21 06:19:18;;;;;;;10.30;3.65;;;13.80;99.90;;;14.03;89.27;98000.34;5072153;28;20044;-83
2023/10/21 06:21:45;;;;;;;6.32;3.42;;;13.80;99.90;;;14.04;88.98;98012.63;5081349;28;20044;-83
2023/10/21 06:24:14;;;;;;;7.15;3.00;;;13.80;99.90;;;14.03;88.97;98016.41;5096822;28;20101;-83
2023/10/21 06:26:43;;;;;;;8.93;3.28;;;13.80;99.90;;;14.03;88.71;98019.88;5081153;28;20127;-83
2023/10/21 06:29:10;;;;;;;6.07;2.63;;;13.80;99.90;;;14.03;88.39;98025.25;5078872;28;20045;-84
2023/10/21 06:31:38;;;;;;;5.03;2.88;;;13.80;99.90;;;14.03;88.75;98030.59;5041167;28;20062;-87
2023/10/21 06:34:06;;;;;;;5.10;3.10;;;13.80;99.90;;;14.03;88.78;98035.97;5057924;28;20079;-87
2023/10/21 06:36:34;;;;;;;5.43;2.90;;;13.80;99.90;;;14.04;89.04;98048.28;5020025;28;20079;-84
2023/10/21 06:39:01;;;;;;;5.05;2.85;;;13.80;99.90;;;14.05;89.49;98044.50;5054390;28;20059;-85
2023/10/21 06:41:29;;;;;;;5.47;2.72;;;13.80;99.90;;;14.07;89.59;98036.97;5053564;28;20416;-85
2023/10/21 06:44:00;;;;;;;7.43;3.03;;;13.90;99.90;;;14.08;90.27;98048.50;5058550;28;20045;-87
2023/10/21 06:46:28;;;;;;;;;;;13.90;99.90;;;14.08;90.52;98048.50;5058223;28;20110;-84
2023/10/21 06:48:56;;;;;;;4.30;2.70;;;13.90;99.90;;;14.09;91.01;98058.91;5058355;28;19927;-84
2023/10/21 06:51:23;;;;;;;6.65;2.35;;;13.90;99.90;;;14.11;91.19;98053.28;5078984;28;20498;-84
2023/10/21 06:53:53;;;;;;;6.25;2.55;;;13.90;99.90;;;14.14;91.38;98069.53;5042558;28;20104;-84
2023/10/21 06:56:20;;;;;;;5.40;2.50;;;14.00;99.90;;;14.15;91.58;98070.34;5075314;28;20048;-84
2023/10/21 06:58:48;;;;;;;4.45;2.50;;;14.00;99.90;;;14.17;92.11;98079.69;5059567;28;20061;-84
2023/10/21 07:01:17;;;;;;;4.40;2.40;;;14.00;99.90;;;14.17;91.99;98089.63;5093253;28;20139;-84
2023/10/21 07:03:45;;;;;;;5.18;2.40;;;14.00;99.90;;;14.17;92.45;98095.00;5044328;28;20060;-84
2023/10/21 07:06:13;;;;;;;4.10;2.00;;;14.00;99.90;;;14.14;92.64;98100.91;5093510;28;20093;-84
2023/10/21 07:08:41;;;;;;;5.22;2.30;;;14.00;99.90;;;14.16;92.82;98104.91;5061048;28;20071;-84
2023/10/21 07:11:08;;;;;;;4.18;1.80;;;14.00;99.90;;;14.20;93.25;98107.81;5062063;28;20044;-85
2023/10/21 07:13:36;;;;;;;6.10;2.22;;;14.10;99.90;;;14.22;93.42;98108.31;5057682;28;20072;-86
2023/10/21 07:16:07;;;;;;;6.43;2.05;;;14.10;99.90;;;14.22;94.51;98108.31;5090795;28;20048;-85
2023/10/21 07:18:37;;;;;;;6.20;1.92;;;14.20;99.90;;;14.22;95.03;98119.03;5060093;28;20048;-83
2023/10/21 07:21:05;;;;;;;5.25;1.80;;;14.20;99.90;;;14.20;95.39;98137.31;5077318;28;20072;-84
2023/10/21 07:23:33;;;;;;;8.27;2.00;;;14.20;99.90;;;14.17;95.16;98156.66;5079318;28;20045;-84
2023/10/21 07:26:00;;;;;;;3.28;1.60;;;14.10;99.90;;;14.14;95.62;98178.66;5048187;28;20113;-83
2023/10/21 07:28:31;;;;;;;4.82;1.80;;;14.10;99.90;;;14.12;95.71;98188.88;5083575;28;20048;-87
2023/10/21 07:31:03;;;;;;;8.00;1.80;;;14.10;99.90;;;14.06;96.00;98168.63;5078230;28;20128;-86
2023/10/21 07:33:37;;;;;;;3.55;1.48;;;14.10;99.90;;;14.03;96.48;98164.63;5075745;28;20045;-87
2023/10/21 07:36:10;;;;;;;4.90;1.23;;;14.00;99.90;;;14.04;96.42;98176.13;5091246;28;20045;-85
2023/10/21 07:38:38;;;;;;;4.47;1.33;;;14.00;99.90;;;14.07;96.68;98181.72;5074863;28;20044;-86
2023/10/21 07:41:19;;;;;;;3.95;1.42;;;14.00;99.90;;;14.09;96.68;98179.53;5073697;28;20580;-87
2023/10/21 07:43:58;;;;;;;4.97;1.60;;;14.10;99.90;;;14.13;96.29;98188.59;5072307;28;20054;-86
2023/10/21 07:46:29;;;;;;;4.90;1.45;;;14.10;99.90;;;14.15;96.08;98188.28;5072934;28;20041;-86
2023/10/21 07:48:59;;;;;;;;;;;14.10;99.90;;;14.17;95.95;98207.56;5073424;28;20515;-86
2023/10/21 07:51:32;;;;;;;3.67;1.20;;;14.10;99.90;;;14.05;94.94;98213.34;5073253;28;19920;-87
2023/10/21 07:54:08;;;;;;;3.03;1.20;;;14.10;99.90;;;13.99;94.80;98211.03;5072269;28;20052;-86
2023/10/21 07:56:37;;;;;;;3.33;1.17;;;14.10;99.90;;;13.95;94.92;98220.75;5073352;28;20068;-87
2023/10/21 07:59:05;;;;;;;5.50;1.13;;;14.00;99.90;;;13.87;95.36;98214.94;5058410;28;20048;-86
2023/10/21 08:01:33;;;;;;;3.38;1.10;;;14.00;99.90;;;13.94;96.10;98219.16;5077546;28;20052;-87
2023/10/21 08:04:01;;;;;;;4.13;1.00;;;14.00;99.90;;;13.92;95.02;98227.50;5044337;28;20098;-87
2023/10/21 08:06:30;;;;;;;2.13;0.90;;;14.00;99.90;;;13.90;94.30;98230.44;5079760;28;20107;-87
2023/10/21 08:08:58;;;;;;;3.22;1.05;;;14.00;99.90;;;13.95;95.18;98236.81;5063222;28;20075;-83
2023/10/21 08:11:25;;;;;;;3.40;0.80;;;14.10;99.90;;;13.98;95.93;98228.22;5084821;28;20068;-88
2023/10/21 08:13:53;;;;;;;3.83;0.80;;;14.20;99.90;;;13.99;95.30;98243.19;5080272;28;20487;-89
2023/10/21 08:16:20;;;;;;;3.08;1.02;;;14.20;99.90;;;14.02;95.71;98243.44;5078074;28;20048;-89
2023/10/21 08:18:48;;;;;;;4.32;1.10;;;14.20;99.90;;;14.03;95.31;98253.06;5080417;28;20053;-89
2023/10/21 08:21:15;;;;;;;1.67;0.80;;;14.20;99.90;;;14.01;94.37;98257.94;5084068;28;20048;-85
2023/10/21 08:23:49;;;;;;;2.72;0.90;;;14.20;99.90;;;14.03;94.13;98260.31;5071589;28;20071;-84
2023/10/21 08:26:18;;;;;;;3.25;1.05;;;14.20;99.90;;;14.07;93.87;98272.84;5075899;28;20128;-88
2023/10/21 08:28:53;;;;;;;2.78;0.88;;;14.20;99.90;;;14.09;94.26;98280.59;5063797;28;20041;-87
2023/10/21 08:31:24;;;;;;;2.67;0.80;;;14.20;99.90;;;14.06;93.84;98284.66;5063768;28;20048;-89
2023/10/21 08:33:52;;;;;;;4.03;1.20;;;14.20;99.90;;;14.08;93.33;98289.72;5063778;28;20111;-84
2023/10/21 08:36:22;;;;;;;5.70;1.00;;;14.20;99.90;;;14.09;93.99;98302.03;5070598;28;20040;-84
2023/10/21 08:38:52;;;;;;;4.70;1.08;;;14.20;99.90;;;14.03;93.97;98301.31;5083090;28;20048;-84
2023/10/21 08:41:20;;;;;;;1.75;0.75;;;14.10;99.90;;;14.06;93.28;98308.00;5064008;28;20095;-84
2023/10/21 08:43:49;;;;;;;3.50;1.10;;;14.10;99.90;;;14.04;92.65;98312.81;5082183;28;20060;-84
2023/10/21 08:46:18;;;;;;;4.10;1.25;;;14.10;99.90;;;14.04;92.21;98318.19;5079051;28;20051;-83
2023/10/21 08:48:49;;;;;;;2.67;1.25;;;14.10;99.90;;;14.06;92.27;98326.75;5094128;28;20090;-83
2023/10/21 08:51:21;;;;;;;4.53;1.02;;;14.10;99.90;;;14.00;91.36;98328.66;5063828;28;20076;-84
2023/10/21 08:53:54;;;;;;;3.40;0.98;;;14.00;99.90;;;14.03;91.47;98335.34;5080440;28;20048;-84
2023/10/21 08:56:24;;;;;;;4.72;1.00;;;14.10;99.90;;;14.12;92.34;98339.78;5063548;28;20041;-84
2023/10/21 08:58:52;;;;;;;5.38;1.25;;;14.20;99.90;;;14.18;92.92;98338.63;5079748;28;20056;-83
2023/10/21 09:01:19;;;;;;;3.63;1.38;;;14.30;99.90;;;14.28;93.21;98344.97;5080056;28;20044;-83
2023/10/21 09:03:47;;;;;;;4.50;1.40;;;14.40;99.90;;;14.36;93.69;98330.94;5078540;28;20086;-83
2023/10/21 09:06:17;;;;;;;3.88;1.27;;;14.50;99.90;;;14.37;93.76;98349.41;5060319;28;20047;-83
2023/10/21 09:08:47;;;;;;;3.45;0.85;;;14.50;99.90;;;14.37;93.08;98348.59;5040186;28;20079;-84
2023/10/21 09:11:19;;;;;;;4.57;1.20;;;14.50;99.90;;;14.31;91.08;98358.59;5074968;28;20086;-84
2023/10/21 09:13:48;;;;;;;2.75;1.00;;;14.50;99.90;;;14.35;91.39;98353.47;5060168;28;20053;-84
2023/10/21 09:16:25;;;;;;;1.92;0.75;;;14.50;99.90;;;14.34;89.33;98360.69;5047895;28;20047;-84
2023/10/21 09:19:01;;;;;;;3.25;0.80;;;14.50;99.90;;;14.31;88.92;98363.97;5061902;28;20052;-83
2023/10/21 09:21:37;;;;;;;2.20;0.82;;;14.50;99.90;;;14.23;87.24;98372.63;5060255;28;20596;-83
2023/10/21 09:24:06;;;;;;;2.72;0.95;;;14.40;99.90;;;14.23;87.62;98375.31;5058812;28;20041;-83
2023/10/21 09:26:45;;;;;;;3.28;0.82;;;14.40;99.90;;;14.25;86.36;98375.84;5060241;28;20045;-83
2023/10/21 09:29:14;;;;;;;4.05;1.08;;;14.40;99.90;;;14.29;87.14;98392.94;5059406;28;20049;-85
2023/10/21 09:31:49;;;;;;;3.30;0.70;;;14.40;99.90;;;14.32;86.37;98397.72;5041710;28;20045;-84
2023/10/21 09:34:29;;;;;;;4.18;1.13;;;14.50;99.90;;;14.30;86.95;98391.88;5059725;28;20051;-84
2023/10/21 09:36:59;;;;;;;3.13;1.10;;;14.50;99.90;;;14.28;84.46;98396.72;5095454;28;20044;-83
2023/10/21 09:39:29;;;;;;;3.85;1.20;;;14.50;99.90;;;14.37;86.39;98400.34;5077166;28;20041;-83
2023/10/21 09:41:59;;;;;;;4.05;1.17;;;14.50;99.90;;;14.40;85.53;98402.47;5060166;28;20135;-83
2023/10/21 09:44:29;;;;;;;4.10;0.95;;;14.60;99.90;;;14.44;84.26;98400.00;5071461;28;20071;-84
2023/10/21 09:46:58;;;;;;;3.95;0.95;;;14.60;99.90;;;14.48;84.73;98406.41;5079957;28;20112;-84
2023/10/21 09:49:28;;;;;;;1.97;0.77;;;14.60;99.90;;;14.49;83.58;98407.22;5080609;28;20502;-84
2023/10/21 09:52:05;;;;;;;2.30;0.82;;;14.70;99.90;;;14.48;82.49;98427.06;5079105;28;20132;-83
2023/10/21 09:54:41;;;;;;;4.22;0.77;;;14.70;99.90;;;14.43;80.92;98417.97;5061912;28;20412;-83
2023/10/21 09:57:12;;;;;;;3.20;1.23;;;14.60;99.90;;;14.40;79.88;98431.19;5044152;28;20504;-83
2023/10/21 09:59:40;;;;;;;2.55;0.85;;;14.60;99.90;;;14.38;80.85;98433.31;5093530;28;20060;-84
2023/10/21 10:02:09;;;;;;;3.67;1.10;;;14.60;99.90;;;14.37;81.13;98431.75;5068944;28;20071;-83
2023/10/21 10:04:37;;;;;;;2.72;0.80;;;14.50;99.90;;;14.25;77.40;98429.47;5080503;28;20098;-84
2023/10/21 10:07:07;;;;;;;3.75;0.90;;;14.50;99.90;;;14.28;80.23;98436.94;5028638;28;20470;-84
2023/10/21 10:09:36;;;;;;;3.95;0.70;;;14.50;99.90;;;14.32;81.31;98435.28;5075047;28;20104;-83
2023/10/21 10:12:13;;;;;;;3.80;0.90;;;14.50;99.90;;;14.35;80.68;98440.09;5066687;28;20127;-83
2023/10/21 10:14:43;;;;;;;5.72;1.20;;;14.50;99.90;;;14.41;79.79;98438.13;5076090;28;20065;-83
2023/10/21 10:17:11;;;;;;;5.45;1.40;;;14.50;99.90;;;14.49;80.87;98444.75;5059428;28;20041;-83
2023/10/21 10:19:42;;;;;;;4.88;1.90;;;14.60;99.90;;;14.52;81.13;98442.31;5059680;28;20041;-83
2023/10/21 10:22:31;;;;;;;4.88;2.30;;;14.60;99.90;;;14.54;80.04;98440.16;5066021;28;20053;-83
2023/10/21 10:25:10;;;;;;;4.18;2.10;;;14.70;99.90;;;14.58;78.67;98451.88;5060071;28;20048;-84
2023/10/21 10:27:40;;;;;;;4.60;2.72;;;14.80;99.90;;;14.61;79.01;98447.84;5073231;28;20045;-83